Time;durP1;ratioP1;P1;durP2;ratioP2;P2;SDS_P1;SDS_P2;PMS_P1;PMS_P2;Temp;Humidity;BMP_temperature;BMP_pressure;BME280_temperature;BME280_humidity;BME280_pressure;Samples;Min_cycle;Max_cycle;Signal;HPM_P1;HPM_P2
2023/08/29 00:00:36;;;;;;;4.93;4.28;;;;;;;;;;5089709;28;20071;-74
2023/08/29 00:03:03;;;;;;;8.82;4.93;;;;;;;;;;5092521;28;20032;-75
2023/08/29 00:05:30;;;;;;;6.90;4.75;;;;;;;;;;5107922;28;20102;-75
2023/08/29 00:07:56;;;;;;;11.60;5.50;;;;;;;;;;5091885;28;20046;-74
2023/08/29 00:10:26;;;;;;;7.53;4.80;;;;;;;;;;5090787;28;20028;-75
2023/08/29 00:12:52;;;;;;;8.50;5.30;;;;;;;;;;5095134;28;20055;-74
2023/08/29 00:15:18;;;;;;;8.57;5.50;;;;;;;;;;5095018;28;20013;-74
2023/08/29 00:17:44;;;;;;;8.52;5.93;;;;;;;;;;5112152;28;20016;-74
2023/08/29 00:20:10;;;;;;;7.82;5.10;;;;;;;;;;5110192;28;20035;-75
2023/08/29 00:22:36;;;;;;;7.72;5.30;;;;;;;;;;5094036;28;20036;-74
2023/08/29 00:25:02;;;;;;;9.15;5.85;;;;;;;;;;5092269;28;20020;-74
2023/08/29 00:27:28;;;;;;;11.63;5.55;;;;;;;;;;5111347;28;20112;-75
2023/08/29 00:29:54;;;;;;;6.10;4.47;;;;;;;;;;5093196;28;20009;-74
2023/08/29 00:32:20;;;;;;;5.95;4.57;;;;;;;;;;5095324;28;20047;-75
2023/08/29 00:34:49;;;;;;;4.75;3.65;;;;;;;;;;5110824;28;20134;-75
2023/08/29 00:37:15;;;;;;;6.38;4.43;;;;;;;;;;5095245;28;20076;-75
2023/08/29 00:39:41;;;;;;;9.30;4.93;;;;;;;;;;5094194;28;20508;-75
2023/08/29 00:42:07;;;;;;;8.43;6.30;;;;;;;;;;5110873;28;20032;-75
2023/08/29 00:44:33;;;;;;;9.52;6.90;;;;;;;;;;5091593;28;20025;-75
2023/08/29 00:46:59;;;;;;;14.27;6.40;;;;;;;;;;5110410;28;20046;-74
2023/08/29 00:49:27;;;;;;;12.50;7.13;;;;;;;;;;5093850;28;20020;-75
2023/08/29 00:51:53;;;;;;;10.75;7.35;;;;;;;;;;5088612;28;20087;-74
2023/08/29 00:54:20;;;;;;;10.10;7.07;;;;;;;;;;5097130;28;20019;-74
2023/08/29 00:56:49;;;;;;;10.57;8.02;;;;;;;;;;5111032;28;20016;-75
2023/08/29 00:59:15;;;;;;;12.70;8.82;;;;;;;;;;5089582;27;20020;-74
2023/08/29 01:01:44;;;;;;;11.40;9.13;;;;;;;;;;5110681;28;20028;-75
2023/08/29 01:04:10;;;;;;;10.27;8.68;;;;;;;;;;5111242;28;20021;-74
2023/08/29 01:06:40;;;;;;;11.48;9.35;;;;;;;;;;5093421;28;20028;-74
2023/08/29 01:09:06;;;;;;;12.65;10.88;;;;;;;;;;5092018;28;20016;-74
2023/08/29 01:11:51;;;;;;;14.38;10.10;;;;;;;;;;5107303;28;20083;-74
2023/08/29 01:14:28;;;;;;;12.23;10.80;;;;;;;;;;5106564;28;20067;-74
2023/08/29 01:17:03;;;;;;;15.52;11.05;;;;;;;;;;5111724;28;20036;-74
2023/08/29 01:19:30;;;;;;;13.43;10.75;;;;;;;;;;5111273;28;20042;-75
2023/08/29 01:22:05;;;;;;;15.30;11.30;;;;;;;;;;5110106;28;20039;-74
2023/08/29 01:24:40;;;;;;;15.00;12.18;;;;;;;;;;5105663;28;20199;-75
2023/08/29 01:27:07;;;;;;;14.35;12.13;;;;;;;;;;5095771;28;20028;-75
2023/08/29 01:29:33;;;;;;;19.88;10.98;;;;;;;;;;5093754;28;20022;-74
2023/08/29 01:32:00;;;;;;;14.20;12.00;;;;;;;;;;5110999;28;20024;-75
2023/08/29 01:34:26;;;;;;;12.63;9.85;;;;;;;;;;5094378;28;20048;-75
2023/08/29 01:36:52;;;;;;;14.63;10.50;;;;;;;;;;5090069;28;20020;-74
2023/08/29 01:39:19;;;;;;;10.73;9.52;;;;;;;;;;5094871;28;20047;-74
2023/08/29 01:41:45;;;;;;;13.10;10.30;;;;;;;;;;5108995;28;20103;-74
2023/08/29 01:44:11;;;;;;;17.35;10.77;;;;;;;;;;5093966;28;20492;-74
2023/08/29 01:46:37;;;;;;;13.00;10.15;;;;;;;;;;5090112;28;20096;-74
2023/08/29 01:49:06;;;;;;;13.73;11.02;;;;;;;;;;5105839;28;20033;-74
2023/08/29 01:51:32;;;;;;;12.68;10.07;;;;;;;;;;5109212;28;20024;-75
2023/08/29 01:54:01;;;;;;;16.10;10.77;;;;;;;;;;5110209;28;20028;-75
2023/08/29 01:56:29;;;;;;;13.30;10.48;;;;;;;;;;5087499;28;20033;-75
2023/08/29 01:58:59;;;;;;;12.13;10.52;;;;;;;;;;5109575;28;20009;-76
2023/08/29 02:01:25;;;;;;;14.15;11.32;;;;;;;;;;5109526;28;20032;-75
2023/08/29 02:03:52;;;;;;;16.35;10.32;;;;;;;;;;5105808;28;20028;-75
2023/08/29 02:06:18;;;;;;;13.23;11.55;;;;;;;;;;5109328;28;20012;-75
2023/08/29 02:08:44;;;;;;;11.98;10.68;;;;;;;;;;5093750;28;20034;-75
2023/08/29 02:11:10;;;;;;;14.70;11.05;;;;;;;;;;5109120;28;20043;-75
2023/08/29 02:13:36;;;;;;;15.10;11.00;;;;;;;;;;5110254;28;20043;-75
2023/08/29 02:16:02;;;;;;;12.25;10.38;;;;;;;;;;5091063;28;20042;-75
2023/08/29 02:18:29;;;;;;;14.13;11.38;;;;;;;;;;5092262;28;20012;-74
2023/08/29 02:20:55;;;;;;;13.55;10.02;;;;;;;;;;5106478;28;20027;-75
2023/08/29 02:23:21;;;;;;;14.10;9.95;;;;;;;;;;5095150;28;20158;-75
2023/08/29 02:25:49;;;;;;;14.38;10.05;;;;;;;;;;5108507;28;20050;-75
2023/08/29 02:28:15;;;;;;;13.52;10.80;;;;;;;;;;5094897;28;20080;-75
2023/08/29 02:30:41;;;;;;;14.43;11.30;;;;;;;;;;5110158;28;20012;-74
2023/08/29 02:33:09;;;;;;;15.02;10.25;;;;;;;;;;5105490;28;20051;-74
2023/08/29 02:35:35;;;;;;;16.50;11.30;;;;;;;;;;5092388;28;20020;-74
2023/08/29 02:38:02;;;;;;;13.40;10.57;;;;;;;;;;5106324;28;20024;-74
2023/08/29 02:40:32;;;;;;;14.77;11.73;;;;;;;;;;5093194;28;20031;-75
2023/08/29 02:42:58;;;;;;;17.42;12.23;;;;;;;;;;5092446;28;20016;-74
2023/08/29 02:45:24;;;;;;;18.80;11.45;;;;;;;;;;5093627;28;20030;-74
2023/08/29 02:47:50;;;;;;;15.45;11.25;;;;;;;;;;5108497;28;20031;-75
2023/08/29 02:50:19;;;;;;;13.93;11.13;;;;;;;;;;5108035;28;20020;-74
2023/08/29 02:52:47;;;;;;;16.85;11.93;;;;;;;;;;5093714;28;20040;-74
2023/08/29 02:55:13;;;;;;;15.55;11.90;;;;;;;;;;5111186;28;20021;-75
2023/08/29 02:57:41;;;;;;;16.33;11.63;;;;;;;;;;5092948;28;20027;-74
2023/08/29 03:00:10;;;;;;;17.70;12.73;;;;;;;;;;5108205;28;20100;-75
2023/08/29 03:02:36;;;;;;;16.80;12.55;;;;;;;;;;5092391;28;20087;-75
2023/08/29 03:05:02;;;;;;;18.90;13.75;;;;;;;;;;5108456;28;20044;-74
2023/08/29 03:07:28;;;;;;;20.40;13.00;;;;;;;;;;5109174;28;20031;-75
2023/08/29 03:09:54;;;;;;;15.30;12.52;;;;;;;;;;5095688;28;20024;-74
2023/08/29 03:12:20;;;;;;;17.50;14.23;;;;;;;;;;5109912;28;21164;-75
2023/08/29 03:14:46;;;;;;;21.25;15.38;;;;;;;;;;5109369;28;20026;-75
2023/08/29 03:17:12;;;;;;;18.52;15.18;;;;;;;;;;5107963;28;20016;-74
2023/08/29 03:19:41;;;;;;;20.48;14.85;;;;;;;;;;5109128;28;20035;-74
2023/08/29 03:22:07;;;;;;;20.27;14.68;;;;;;;;;;5109039;28;20058;-75
2023/08/29 03:24:33;;;;;;;20.15;16.38;;;;;;;;;;5105026;28;20031;-75
2023/08/29 03:27:03;;;;;;;19.48;15.38;;;;;;;;;;5093980;28;20016;-75
2023/08/29 03:29:29;;;;;;;21.90;16.50;;;;;;;;;;5109808;28;20039;-75
2023/08/29 03:31:55;;;;;;;25.30;16.63;;;;;;;;;;5094391;28;20023;-75
2023/08/29 03:34:21;;;;;;;29.42;17.50;;;;;;;;;;5087299;28;20047;-75
2023/08/29 03:36:47;;;;;;;30.75;16.85;;;;;;;;;;5107284;28;20036;-75
2023/08/29 03:39:15;;;;;;;22.40;16.88;;;;;;;;;;5105539;28;20016;-74
2023/08/29 03:41:41;;;;;;;23.85;17.65;;;;;;;;;;5092633;28;20036;-75
2023/08/29 03:44:07;;;;;;;30.23;18.65;;;;;;;;;;5110025;28;20051;-75
2023/08/29 03:46:33;;;;;;;22.88;17.42;;;;;;;;;;5094994;28;20024;-75
2023/08/29 03:48:59;;;;;;;27.23;19.33;;;;;;;;;;5111589;28;20035;-75
2023/08/29 03:51:25;;;;;;;22.05;18.05;;;;;;;;;;5108546;28;20020;-75
2023/08/29 03:53:51;;;;;;;25.42;17.50;;;;;;;;;;5093388;28;20043;-75
2023/08/29 03:56:17;;;;;;;29.73;17.98;;;;;;;;;;5093718;28;20020;-74
2023/08/29 03:58:45;;;;;;;23.67;16.55;;;;;;;;;;5109445;28;20118;-74
2023/08/29 04:01:11;;;;;;;22.88;17.38;;;;;;;;;;5112382;28;20024;-75
2023/08/29 04:03:37;;;;;;;21.08;16.52;;;;;;;;;;5107667;28;20026;-74
2023/08/29 04:06:04;;;;;;;24.17;16.75;;;;;;;;;;5093558;28;20016;-75
2023/08/29 04:08:32;;;;;;;24.75;15.77;;;;;;;;;;5095020;28;20036;-75
2023/08/29 04:11:01;;;;;;;18.35;15.30;;;;;;;;;;5107095;28;20005;-75
2023/08/29 04:13:27;;;;;;;20.58;17.10;;;;;;;;;;5110848;28;20126;-75
2023/08/29 04:15:53;;;;;;;22.88;17.17;;;;;;;;;;5111653;28;20024;-74
2023/08/29 04:18:21;;;;;;;21.50;15.07;;;;;;;;;;5110726;28;20085;-75
2023/08/29 04:20:47;;;;;;;25.80;18.08;;;;;;;;;;5111928;28;20043;-74
2023/08/29 04:23:16;;;;;;;24.25;16.00;;;;;;;;;;5095370;28;20024;-75
2023/08/29 04:25:42;;;;;;;21.30;16.23;;;;;;;;;;5094281;28;20032;-74
2023/08/29 04:28:09;;;;;;;19.13;15.75;;;;;;;;;;5111343;28;20048;-75
2023/08/29 04:30:37;;;;;;;22.42;16.85;;;;;;;;;;5093952;28;20050;-74
2023/08/29 04:33:03;;;;;;;21.42;15.98;;;;;;;;;;5089007;28;20031;-75
2023/08/29 04:35:29;;;;;;;20.17;15.70;;;;;;;;;;5094416;28;20028;-76
2023/08/29 04:37:55;;;;;;;25.40;16.20;;;;;;;;;;5093971;28;20004;-74
2023/08/29 04:40:24;;;;;;;25.27;17.23;;;;;;;;;;5090596;28;20034;-75
2023/08/29 04:42:53;;;;;;;20.83;16.73;;;;;;;;;;5096394;28;20063;-75
2023/08/29 04:45:19;;;;;;;23.08;17.75;;;;;;;;;;5090599;28;20034;-75
2023/08/29 04:47:45;;;;;;;22.42;16.58;;;;;;;;;;5093441;28;20012;-74
2023/08/29 04:50:11;;;;;;;23.05;16.20;;;;;;;;;;5112084;28;20046;-74
2023/08/29 04:52:38;;;;;;;25.35;17.65;;;;;;;;;;5090597;28;20107;-74
2023/08/29 04:55:05;;;;;;;25.65;19.00;;;;;;;;;;5090032;28;20138;-75
2023/08/29 04:57:31;;;;;;;26.52;18.63;;;;;;;;;;5097163;28;20012;-74
2023/08/29 04:59:57;;;;;;;25.98;18.55;;;;;;;;;;5111630;28;20039;-74
2023/08/29 05:02:23;;;;;;;21.98;17.38;;;;;;;;;;5108838;28;20037;-75
2023/08/29 05:04:49;;;;;;;27.88;19.73;;;;;;;;;;5095655;28;20012;-74
2023/08/29 05:07:15;;;;;;;23.00;17.90;;;;;;;;;;5097285;28;20028;-75
2023/08/29 05:09:41;;;;;;;25.92;18.60;;;;;;;;;;5111858;28;20048;-75
2023/08/29 05:12:10;;;;;;;24.05;18.63;;;;;;;;;;5110951;28;20028;-74
2023/08/29 05:14:38;;;;;;;27.50;19.73;;;;;;;;;;5093323;28;20028;-74
2023/08/29 05:17:10;;;;;;;25.95;18.98;;;;;;;;;;5109927;28;20024;-75
2023/08/29 05:19:36;;;;;;;27.33;19.25;;;;;;;;;;5109528;28;20024;-75
2023/08/29 05:22:02;;;;;;;23.70;19.15;;;;;;;;;;5094273;28;20046;-75
2023/08/29 05:24:28;;;;;;;27.75;20.08;;;;;;;;;;5111025;28;20012;-74
2023/08/29 05:26:54;;;;;;;26.25;19.83;;;;;;;;;;5107653;28;20050;-76
2023/08/29 05:29:22;;;;;;;24.73;19.63;;;;;;;;;;5110699;28;20074;-74
2023/08/29 05:31:51;;;;;;;26.88;19.80;;;;;;;;;;5110358;28;20031;-75
2023/08/29 05:34:17;;;;;;;25.30;18.92;;;;;;;;;;5094432;28;20028;-75
2023/08/29 05:36:43;;;;;;;25.45;18.65;;;;;;;;;;5110315;28;20028;-75
2023/08/29 05:39:09;;;;;;;29.08;18.98;;;;;;;;;;5107677;28;20012;-75
2023/08/29 05:41:35;;;;;;;27.10;19.88;;;;;;;;;;5107175;28;20087;-75
2023/08/29 05:44:01;;;;;;;24.83;18.80;;;;;;;;;;5109993;28;20036;-75
2023/08/29 05:46:27;;;;;;;26.88;20.23;;;;;;;;;;5108942;28;20020;-74
2023/08/29 05:48:53;;;;;;;25.73;19.45;;;;;;;;;;5093936;28;20016;-76
2023/08/29 05:51:19;;;;;;;27.45;20.27;;;;;;;;;;5109459;28;20016;-74
2023/08/29 05:53:45;;;;;;;22.02;18.38;;;;;;;;;;5092434;28;20039;-74
2023/08/29 05:56:10;;;;;;;28.20;19.95;;;;;;;;;;5092878;28;20043;-74
2023/08/29 05:58:39;;;;;;;26.20;20.88;;;;;;;;;;5106143;28;20032;-75
2023/08/29 06:01:08;;;;;;;28.88;20.48;;;;;;;;;;5088729;28;20028;-75
2023/08/29 06:03:34;;;;;;;29.30;20.70;;;;;;;;;;5110133;28;20088;-74
2023/08/29 06:06:03;;;;;;;29.38;20.70;;;;;;;;;;5091427;28;20039;-74
2023/08/29 06:08:29;;;;;;;28.15;20.65;;;;;;;;;;5089284;28;20036;-75
2023/08/29 06:10:55;;;;;;;26.92;20.45;;;;;;;;;;5109544;28;20035;-74
2023/08/29 06:13:21;;;;;;;27.42;20.77;;;;;;;;;;5094515;28;20044;-75
2023/08/29 06:15:49;;;;;;;33.15;20.63;;;;;;;;;;5105019;28;20028;-75
2023/08/29 06:18:18;;;;;;;26.27;20.70;;;;;;;;;;5108016;28;20012;-75
2023/08/29 06:20:44;;;;;;;30.65;21.08;;;;;;;;;;5108196;28;20028;-75
2023/08/29 06:23:10;;;;;;;28.27;20.42;;;;;;;;;;5092024;28;20087;-75
2023/08/29 06:25:38;;;;;;;28.50;20.25;;;;;;;;;;5109447;28;20016;-76
2023/08/29 06:28:05;;;;;;;28.58;19.95;;;;;;;;;;5087454;28;20051;-76
2023/08/29 06:30:31;;;;;;;32.33;21.75;;;;;;;;;;5092770;28;20025;-76
2023/08/29 06:32:57;;;;;;;29.23;21.40;;;;;;;;;;5094367;28;20057;-79
2023/08/29 06:35:23;;;;;;;30.92;20.55;;;;;;;;;;5089668;28;20042;-77
2023/08/29 06:37:49;;;;;;;35.03;22.45;;;;;;;;;;5093583;28;20047;-79
2023/08/29 06:40:15;;;;;;;32.20;21.33;;;;;;;;;;5088477;28;20091;-74
2023/08/29 06:42:41;;;;;;;33.55;22.88;;;;;;;;;;5106282;28;20035;-75
2023/08/29 06:45:08;;;;;;;35.00;21.13;;;;;;;;;;5093526;28;20087;-75
2023/08/29 06:47:34;;;;;;;33.28;21.92;;;;;;;;;;5089280;28;20016;-76
2023/08/29 06:50:00;;;;;;;31.40;20.70;;;;;;;;;;5105702;28;20024;-75
2023/08/29 06:52:29;;;;;;;37.08;23.75;;;;;;;;;;5095270;28;20032;-75
2023/08/29 06:54:57;;;;;;;34.80;22.85;;;;;;;;;;5109642;28;20024;-77
2023/08/29 06:57:23;;;;;;;32.55;23.48;;;;;;;;;;5110453;28;20085;-75
2023/08/29 06:59:49;;;;;;;34.63;22.83;;;;;;;;;;5089680;28;20036;-75
2023/08/29 07:02:15;;;;;;;35.75;24.65;;;;;;;;;;5093678;28;20035;-75
2023/08/29 07:04:41;;;;;;;34.28;22.40;;;;;;;;;;5108267;28;20076;-75
2023/08/29 07:07:07;;;;;;;34.92;24.67;;;;;;;;;;5102687;28;20359;-75
2023/08/29 07:09:34;;;;;;;34.70;24.15;;;;;;;;;;5092595;28;20044;-76
2023/08/29 07:12:00;;;;;;;32.28;22.00;;;;;;;;;;5108034;28;20016;-75
2023/08/29 07:14:26;;;;;;;27.17;21.63;;;;;;;;;;5088279;28;20032;-75
2023/08/29 07:16:52;;;;;;;27.33;20.98;;;;;;;;;;5109548;28;20055;-76
2023/08/29 07:19:18;;;;;;;27.33;20.88;;;;;;;;;;5094736;28;20031;-76
2023/08/29 07:21:46;;;;;;;27.90;22.17;;;;;;;;;;5113519;28;20080;-77
2023/08/29 07:24:12;;;;;;;27.17;20.42;;;;;;;;;;5107499;28;20028;-74
2023/08/29 07:26:38;;;;;;;29.40;20.35;;;;;;;;;;5095850;28;20023;-75
2023/08/29 07:29:04;;;;;;;28.60;21.02;;;;;;;;;;5107643;28;20138;-74
2023/08/29 07:31:30;;;;;;;25.15;19.48;;;;;;;;;;5110867;28;20012;-74
2023/08/29 07:33:56;;;;;;;30.63;21.65;;;;;;;;;;5095520;28;20042;-74
2023/08/29 07:36:22;;;;;;;31.92;21.98;;;;;;;;;;5112939;28;20020;-74
2023/08/29 07:38:48;;;;;;;30.27;21.85;;;;;;;;;;5094291;28;20326;-74
2023/08/29 07:41:14;;;;;;;39.00;24.27;;;;;;;;;;5112923;28;20030;-74
2023/08/29 07:43:40;;;;;;;33.10;26.02;;;;;;;;;;5113166;28;20038;-74
2023/08/29 07:46:08;;;;;;;39.10;28.00;;;;;;;;;;5111879;28;20063;-74
2023/08/29 07:48:37;;;;;;;38.95;29.13;;;;;;;;;;5095625;28;20040;-74
2023/08/29 07:51:05;;;;;;;43.10;31.40;;;;;;;;;;5095417;28;20031;-74
2023/08/29 07:53:33;;;;;;;43.83;32.25;;;;;;;;;;5111325;28;20024;-74
2023/08/29 07:55:59;;;;;;;45.72;31.40;;;;;;;;;;5095109;28;20038;-74
2023/08/29 07:58:25;;;;;;;48.30;33.03;;;;;;;;;;5111621;28;20020;-74
2023/08/29 08:00:51;;;;;;;51.30;35.70;;;;;;;;;;5111119;28;20058;-74
2023/08/29 08:03:17;;;;;;;44.22;34.17;;;;;;;;;;5112503;28;20020;-74
2023/08/29 08:05:44;;;;;;;47.30;32.92;;;;;;;;;;5093048;28;20091;-74
2023/08/29 08:08:10;;;;;;;54.47;35.35;;;;;;;;;;5095858;28;20183;-74
2023/08/29 08:10:36;;;;;;;46.88;33.03;;;;;;;;;;5110717;28;20024;-74
2023/08/29 08:13:03;;;;;;;46.83;33.00;;;;;;;;;;5110603;28;20036;-74
2023/08/29 08:15:32;;;;;;;50.45;35.47;;;;;;;;;;5107254;28;20028;-74
2023/08/29 08:17:57;;;;;;;51.75;34.78;;;;;;;;;;5095815;28;20242;-74
2023/08/29 08:20:26;;;;;;;43.38;31.90;;;;;;;;;;5099218;28;20012;-74
2023/08/29 08:22:52;;;;;;;42.58;31.48;;;;;;;;;;5098808;28;20016;-74
2023/08/29 08:25:18;;;;;;;42.83;32.45;;;;;;;;;;5095376;28;20158;-75
2023/08/29 08:27:47;;;;;;;39.85;28.23;;;;;;;;;;5095403;28;20077;-74
2023/08/29 08:30:15;;;;;;;43.22;30.25;;;;;;;;;;5092997;28;20124;-74
2023/08/29 08:32:44;;;;;;;41.83;31.33;;;;;;;;;;5111135;28;20033;-75
2023/08/29 08:35:11;;;;;;;38.53;28.95;;;;;;;;;;5095359;28;20028;-73
2023/08/29 08:37:37;;;;;;;54.42;32.15;;;;;;;;;;5095598;28;20095;-74
2023/08/29 08:40:09;;;;;;;41.38;30.20;;;;;;;;;;5091986;28;20016;-73
2023/08/29 08:42:44;;;;;;;45.30;32.67;;;;;;;;;;5092990;28;20020;-74
2023/08/29 08:45:12;;;;;;;42.55;31.98;;;;;;;;;;5091397;28;20027;-73
2023/08/29 08:47:39;;;;;;;42.75;31.70;;;;;;;;;;5092661;28;20004;-73
2023/08/29 08:50:08;;;;;;;44.03;30.23;;;;;;;;;;5095090;28;20024;-74
2023/08/29 08:52:34;;;;;;;42.85;30.60;;;;;;;;;;5110023;28;20067;-74
2023/08/29 08:55:00;;;;;;;46.92;31.55;;;;;;;;;;5094202;28;20012;-74
2023/08/29 08:57:26;;;;;;;44.97;32.33;;;;;;;;;;5110958;28;20038;-75
2023/08/29 08:59:52;;;;;;;46.22;31.50;;;;;;;;;;5111449;28;20022;-74
2023/08/29 09:02:18;;;;;;;46.30;33.00;;;;;;;;;;5094031;28;21098;-74
2023/08/29 09:04:44;;;;;;;48.47;33.85;;;;;;;;;;5094509;28;20016;-74
2023/08/29 09:07:10;;;;;;;45.58;32.67;;;;;;;;;;5110489;28;20058;-75
2023/08/29 09:09:36;;;;;;;45.10;31.90;;;;;;;;;;5096366;28;20027;-74
2023/08/29 09:12:05;;;;;;;38.38;28.85;;;;;;;;;;5109845;28;20028;-74
2023/08/29 09:14:34;;;;;;;43.90;30.77;;;;;;;;;;5087591;28;20036;-74
2023/08/29 09:17:00;;;;;;;45.10;32.90;;;;;;;;;;5093071;28;20048;-74
2023/08/29 09:19:33;;;;;;;41.92;28.27;;;;;;;;;;5092128;28;20028;-74
2023/08/29 09:21:59;;;;;;;37.95;27.30;;;;;;;;;;5111514;28;20039;-74
2023/08/29 09:24:37;;;;;;;41.60;29.50;;;;;;;;;;5110873;28;20063;-75
2023/08/29 09:27:10;;;;;;;50.13;31.20;;;;;;;;;;5105598;28;20028;-75
2023/08/29 09:29:36;;;;;;;39.72;29.67;;;;;;;;;;5106687;28;20054;-74
2023/08/29 09:32:13;;;;;;;45.60;31.23;;;;;;;;;;5109757;28;20013;-74
2023/08/29 09:34:39;;;;;;;51.28;32.00;;;;;;;;;;5106354;28;20233;-76
2023/08/29 09:37:06;;;;;;;38.05;29.52;;;;;;;;;;5104006;28;20032;-76
2023/08/29 09:39:32;;;;;;;42.42;30.80;;;;;;;;;;5086872;28;20083;-76
2023/08/29 09:42:08;;;;;;;52.92;33.33;;;;;;;;;;5091441;28;20059;-78
2023/08/29 09:44:35;;;;;;;46.97;32.03;;;;;;;;;;5091669;28;20039;-77
2023/08/29 09:47:01;;;;;;;45.92;32.60;;;;;;;;;;5086466;28;20028;-79
2023/08/29 09:49:32;;;;;;;44.47;32.55;;;;;;;;;;5083414;28;20043;-81
2023/08/29 09:52:01;;;;;;;40.00;29.73;;;;;;;;;;5085221;28;20043;-81
2023/08/29 09:54:29;;;;;;;36.20;26.85;;;;;;;;;;5063574;28;20123;-79
2023/08/29 09:56:58;;;;;;;41.42;27.98;;;;;;;;;;5085333;28;21713;-83
2023/08/29 09:59:24;;;;;;;37.33;25.17;;;;;;;;;;5084940;28;20032;-80
2023/08/29 10:01:52;;;;;;;36.38;24.98;;;;;;;;;;5083350;28;20032;-84
2023/08/29 10:04:20;;;;;;;31.08;23.67;;;;;;;;;;5067542;28;20333;-85
2023/08/29 10:06:48;;;;;;;32.08;23.10;;;;;;;;;;5064965;28;20036;-82
2023/08/29 10:09:15;;;;;;;25.80;19.10;;;;;;;;;;5068521;28;20109;-78
2023/08/29 10:11:43;;;;;;;27.55;17.77;;;;;;;;;;5081320;28;20036;-82
2023/08/29 10:14:10;;;;;;;22.95;15.40;;;;;;;;;;5084930;28;20031;-80
2023/08/29 10:16:36;;;;;;;23.80;16.33;;;;;;;;;;5086713;28;20095;-81
2023/08/29 10:19:02;;;;;;;22.17;16.17;;;;;;;;;;5064774;28;20535;-81
2023/08/29 10:21:28;;;;;;;19.70;15.38;;;;;;;;;;5083133;28;20479;-84
2023/08/29 10:23:55;;;;;;;19.45;15.15;;;;;;;;;;5085147;28;20079;-80
2023/08/29 10:26:23;;;;;;;21.95;16.95;;;;;;;;;;5084472;28;20101;-82
2023/08/29 10:28:50;;;;;;;21.23;14.93;;;;;;;;;;5068623;28;20036;-85
2023/08/29 10:31:18;;;;;;;17.65;13.68;;;;;;;;;;5084596;28;20372;-81
2023/08/29 10:33:44;;;;;;;18.88;14.20;;;;;;;;;;5068946;28;20035;-86
2023/08/29 10:36:11;;;;;;;20.52;15.18;;;;;;;;;;5067090;28;20030;-80
2023/08/29 10:38:40;;;;;;;30.27;16.25;;;;;;;;;;5085513;28;20036;-82
2023/08/29 10:41:10;;;;;;;14.95;10.88;;;;;;;;;;5063683;28;20035;-85
2023/08/29 10:43:36;;;;;;;12.48;9.27;;;;;;;;;;5069018;28;20127;-81
2023/08/29 10:46:12;;;;;;;12.05;8.90;;;;;;;;;;5083804;28;20156;-82
2023/08/29 10:48:44;;;;;;;21.83;13.88;;;;;;;;;;5083497;28;20355;-82
2023/08/29 10:51:09;;;;;;;16.45;10.32;;;;;;;;;;5065920;28;20599;-81
2023/08/29 10:53:49;;;;;;;17.17;11.32;;;;;;;;;;5063059;28;20028;-84
2023/08/29 10:56:18;;;;;;;23.45;15.85;;;;;;;;;;5066558;28;20668;-84
2023/08/29 10:58:47;;;;;;;23.65;17.08;;;;;;;;;;5084767;28;20016;-83
2023/08/29 11:01:28;;;;;;;30.40;20.73;;;;;;;;;;5083630;28;20626;-82
2023/08/29 11:03:55;;;;;;;20.92;14.50;;;;;;;;;;5063094;28;20020;-83
2023/08/29 11:06:25;;;;;;;18.88;13.50;;;;;;;;;;5083206;28;20035;-84
2023/08/29 11:09:11;;;;;;;24.20;17.52;;;;;;;;;;5070480;28;20114;-85
2023/08/29 11:11:37;;;;;;;28.88;20.40;;;;;;;;;;5083147;28;20089;-78
2023/08/29 11:14:06;;;;;;;31.60;20.92;;;;;;;;;;5067378;28;20082;-83
2023/08/29 11:16:35;;;;;;;31.02;22.35;;;;;;;;;;5083752;28;20263;-81
2023/08/29 11:19:11;;;;;;;30.85;22.55;;;;;;;;;;5085100;28;20016;-80
2023/08/29 11:21:37;;;;;;;34.67;24.95;;;;;;;;;;5081025;28;20035;-80
2023/08/29 11:24:07;;;;;;;36.08;25.73;;;;;;;;;;5065853;28;20062;-85
2023/08/29 11:26:36;;;;;;;34.47;24.38;;;;;;;;;;5069027;28;20044;-82
2023/08/29 11:29:05;;;;;;;38.58;26.45;;;;;;;;;;5070569;28;20036;-80
2023/08/29 11:31:39;;;;;;;35.92;25.50;;;;;;;;;;5066610;28;20146;-84
2023/08/29 11:34:11;;;;;;;34.13;23.38;;;;;;;;;;5067446;28;21669;-83
2023/08/29 11:36:37;;;;;;;29.55;23.77;;;;;;;;;;5071018;28;20020;-80
2023/08/29 11:39:07;;;;;;;33.35;24.05;;;;;;;;;;5084410;28;20027;-83
2023/08/29 11:41:34;;;;;;;26.40;20.50;;;;;;;;;;5062507;28;20016;-84
2023/08/29 11:44:00;;;;;;;28.35;21.27;;;;;;;;;;5080343;28;20028;-82
2023/08/29 11:46:33;;;;;;;30.67;22.80;;;;;;;;;;5066601;28;20034;-83
2023/08/29 11:49:02;;;;;;;25.60;19.45;;;;;;;;;;5068558;28;20031;-82
2023/08/29 11:51:30;;;;;;;23.63;17.63;;;;;;;;;;5070000;28;20032;-82
2023/08/29 11:53:59;;;;;;;23.25;16.88;;;;;;;;;;5083402;28;20032;-78
2023/08/29 11:56:28;;;;;;;23.60;14.98;;;;;;;;;;5083598;28;20025;-80
2023/08/29 11:58:56;;;;;;;18.33;13.23;;;;;;;;;;5061664;28;20036;-83
2023/08/29 12:01:22;;;;;;;16.33;14.10;;;;;;;;;;5069038;28;20024;-81
2023/08/29 12:03:50;;;;;;;9.57;7.57;;;;;;;;;;5082451;28;20032;-82
2023/08/29 12:06:18;;;;;;;11.43;7.60;;;;;;;;;;5087654;28;20039;-79
2023/08/29 12:08:45;;;;;;;9.70;8.60;;;;;;;;;;5069146;28;20069;-82
2023/08/29 12:11:15;;;;;;;12.95;8.55;;;;;;;;;;5087394;28;20579;-80
2023/08/29 12:14:00;;;;;;;9.75;6.90;;;;;;;;;;5070299;28;20123;-81
2023/08/29 12:16:26;;;;;;;10.93;8.80;;;;;;;;;;5070670;28;20157;-81
2023/08/29 12:19:06;;;;;;;11.32;8.32;;;;;;;;;;5065452;28;20938;-82
2023/08/29 12:21:34;;;;;;;16.23;7.75;;;;;;;;;;5086888;28;20020;-81
2023/08/29 12:24:10;;;;;;;11.82;7.30;;;;;;;;;;5087172;28;20028;-83
2023/08/29 12:26:39;;;;;;;11.55;6.35;;;;;;;;;;5087862;28;20060;-83
2023/08/29 12:29:05;;;;;;;7.15;6.03;;;;;;;;;;5087457;28;20074;-81
2023/08/29 12:31:31;;;;;;;9.35;6.10;;;;;;;;;;5088066;28;20031;-84
2023/08/29 12:33:59;;;;;;;12.45;6.60;;;;;;;;;;5086605;28;20028;-80
2023/08/29 12:36:27;;;;;;;10.68;6.40;;;;;;;;;;5086135;28;20036;-82
2023/08/29 12:38:53;;;;;;;8.35;4.75;;;;;;;;;;5070025;28;20115;-83
2023/08/29 12:41:25;;;;;;;12.30;4.63;;;;;;;;;;5087870;28;20162;-83
2023/08/29 12:43:55;;;;;;;8.05;4.00;;;;;;;;;;5087540;28;20044;-83
2023/08/29 12:46:21;;;;;;;5.60;4.00;;;;;;;;;;5086796;28;20030;-80
2023/08/29 12:48:52;;;;;;;5.45;3.85;;;;;;;;;;5088205;28;20032;-84
2023/08/29 12:51:18;;;;;;;5.57;4.32;;;;;;;;;;5075645;28;20032;-81
2023/08/29 12:53:44;;;;;;;10.07;4.03;;;;;;;;;;5069181;28;21642;-81
2023/08/29 12:56:10;;;;;;;9.15;5.38;;;;;;;;;;5070308;28;20020;-81
2023/08/29 12:58:36;;;;;;;7.75;4.80;;;;;;;;;;5090295;28;20024;-82
2023/08/29 13:01:05;;;;;;;11.15;4.97;;;;;;;;;;5073042;28;20127;-86
2023/08/29 13:03:31;;;;;;;11.63;6.55;;;;;;;;;;5087821;28;20036;-82
2023/08/29 13:05:57;;;;;;;9.45;5.55;;;;;;;;;;5069770;28;20031;-82
2023/08/29 13:08:23;;;;;;;12.63;6.13;;;;;;;;;;5064808;28;20036;-81
2023/08/29 13:10:51;;;;;;;9.60;5.85;;;;;;;;;;5066319;28;20042;-82
2023/08/29 13:13:17;;;;;;;11.88;6.97;;;;;;;;;;5064697;28;20036;-83
2023/08/29 13:15:43;;;;;;;10.02;6.85;;;;;;;;;;5070676;28;20115;-83
2023/08/29 13:18:09;;;;;;;13.32;7.28;;;;;;;;;;5069442;28;20422;-79
2023/08/29 13:20:35;;;;;;;11.88;7.30;;;;;;;;;;5070348;28;20032;-84
2023/08/29 13:23:01;;;;;;;9.57;6.43;;;;;;;;;;5069246;28;20028;-81
2023/08/29 13:25:28;;;;;;;11.50;6.75;;;;;;;;;;5084835;28;21639;-84
2023/08/29 13:27:55;;;;;;;10.00;5.25;;;;;;;;;;5086305;28;20032;-81
2023/08/29 13:30:24;;;;;;;9.90;3.50;;;;;;;;;;5067288;28;20035;-81
2023/08/29 13:32:50;;;;;;;3.65;2.60;;;;;;;;;;5085703;28;20062;-83
2023/08/29 13:35:17;;;;;;;5.70;3.30;;;;;;;;;;5069460;28;20040;-84
2023/08/29 13:37:45;;;;;;;4.72;2.80;;;;;;;;;;5084474;28;20027;-84
2023/08/29 13:40:11;;;;;;;6.75;2.83;;;;;;;;;;5065757;28;20028;-79
2023/08/29 13:42:37;;;;;;;7.85;2.50;;;;;;;;;;5083502;28;20067;-83
2023/08/29 13:45:04;;;;;;;6.03;2.70;;;;;;;;;;5070122;28;20062;-81
2023/08/29 13:47:31;;;;;;;3.45;2.35;;;;;;;;;;5067620;28;20032;-81
2023/08/29 13:49:57;;;;;;;7.82;2.72;;;;;;;;;;5069453;28;20024;-81
2023/08/29 13:52:26;;;;;;;2.00;1.67;;;;;;;;;;5063575;28;20152;-79
2023/08/29 13:54:52;;;;;;;3.85;1.60;;;;;;;;;;5086027;28;20020;-83
2023/08/29 13:57:18;;;;;;;3.15;1.75;;;;;;;;;;5070249;28;20359;-81
2023/08/29 13:59:45;;;;;;;2.38;1.33;;;;;;;;;;5062062;28;20028;-85
2023/08/29 14:02:12;;;;;;;1.45;1.05;;;;;;;;;;5064281;28;20050;-83
2023/08/29 14:04:38;;;;;;;4.97;1.35;;;;;;;;;;5087305;28;20055;-85
2023/08/29 14:07:04;;;;;;;2.83;0.77;;;;;;;;;;5070355;28;20052;-83
2023/08/29 14:09:34;;;;;;;2.08;1.10;;;;;;;;;;5084408;28;20016;-81
2023/08/29 14:12:00;;;;;;;4.57;0.93;;;;;;;;;;5084183;28;20127;-83
2023/08/29 14:14:26;;;;;;;3.10;0.40;;;;;;;;;;5085423;28;20032;-84
2023/08/29 14:16:52;;;;;;;3.25;1.17;;;;;;;;;;5084892;28;20032;-82
2023/08/29 14:19:20;;;;;;;2.67;0.90;;;;;;;;;;5065377;28;20024;-81
2023/08/29 14:21:46;;;;;;;5.07;1.33;;;;;;;;;;5084945;28;20055;-81
2023/08/29 14:24:12;;;;;;;2.05;0.90;;;;;;;;;;5068335;28;20059;-82